Terminal Aerodrome Forecast
Issued by NWS Jackson, KY

Current Version | Previous Version | Text Only | Print | Product List | Glossary On
Versions: 1 2 3 4 5 6 7 8 9 10 11 12 13 14 15 16 17 18 19 20 21 22 23 24 25 26 27
000
FTUS43 KJKL 251500 AAB
TAFJKL
TAF AMD
KJKL 251519Z 2515/2612 VRB03KT P6SM BKN007 OVC012
     FM251600 VRB04KT P6SM SCT010 BKN020
     FM251630 VRB04KT P6SM SCT020=

USA.gov is the U.S. government's official web portal to all federal, state and local government web resources and services.